Time,TemperatureF,DewpointF,PressureIn,WindDirection,WindDirectionDegrees,WindSpeedMPH,WindSpeedGustMPH,Humidity,HourlyPrecipIn,Conditions,Clouds,dailyrainin,SoftwareType,DateUTC
2013-09-18 00:12:00,56.0,44.0,-100.00,SSE,167,7.0,13.0,63,0.00,,,0.05,,2013-09-18 06:12:00,
2013-09-18 00:22:00,56.0,44.0,-100.00,SSE,167,7.0,13.0,63,0.00,,,0.05,,2013-09-18 06:22:00,
2013-09-18 00:33:00,56.0,44.0,-100.00,SSE,167,7.0,13.0,63,0.00,,,0.05,,2013-09-18 06:33:00,
2013-09-18 00:42:00,56.0,44.0,-100.00,South,179,6.0,12.0,63,0.00,,,0.05,,2013-09-18 06:42:00,
2013-09-18 01:12:00,56.0,44.0,-100.00,South,179,6.0,12.0,63,0.00,,,0.05,,2013-09-18 07:12:00,
2013-09-18 01:22:00,56.0,44.0,-100.00,South,179,6.0,12.0,63,0.00,,,0.05,,2013-09-18 07:22:00,
2013-09-18 01:32:00,56.0,44.0,-100.00,South,179,6.0,12.0,63,0.00,,,0.05,,2013-09-18 07:32:00,
2013-09-18 01:42:00,56.0,45.0,-100.00,WSW,254,6.0,12.0,66,0.00,,,0.05,,2013-09-18 07:42:00,
2013-09-18 02:12:00,56.0,45.0,-100.00,WSW,254,6.0,12.0,66,0.00,,,0.05,,2013-09-18 08:12:00,
2013-09-18 02:22:00,56.0,45.0,-100.00,WSW,254,6.0,12.0,66,0.00,,,0.05,,2013-09-18 08:22:00,
2013-09-18 02:32:00,56.0,45.0,-100.00,WSW,254,6.0,12.0,66,0.00,,,0.05,,2013-09-18 08:32:00,
2013-09-18 02:42:00,52.0,46.0,-100.00,WSW,246,8.0,19.0,80,0.01,,,0.06,,2013-09-18 08:42:00,
2013-09-18 03:12:00,52.0,46.0,-100.00,WSW,246,8.0,19.0,80,0.01,,,0.06,,2013-09-18 09:12:00,
2013-09-18 03:22:00,52.0,46.0,-100.00,WSW,246,8.0,19.0,80,0.01,,,0.06,,2013-09-18 09:22:00,
2013-09-18 03:33:00,52.0,46.0,-100.00,WSW,246,8.0,19.0,80,0.01,,,0.06,,2013-09-18 09:33:00,
2013-09-18 03:42:00,51.0,47.0,-100.00,SSW,209,6.0,18.0,85,0.02,,,0.08,,2013-09-18 09:42:00,
2013-09-18 04:13:00,51.0,47.0,-100.00,SSW,209,6.0,18.0,85,0.02,,,0.08,,2013-09-18 10:13:00,
2013-09-18 04:23:00,51.0,47.0,-100.00,SSW,209,6.0,18.0,85,0.02,,,0.08,,2013-09-18 10:23:00,
2013-09-18 04:33:00,51.0,47.0,-100.00,SSW,209,6.0,18.0,85,0.02,,,0.08,,2013-09-18 10:33:00,
2013-09-18 04:42:00,50.0,46.0,-100.00,SSW,212,6.0,11.0,87,0.00,,,0.08,,2013-09-18 10:42:00,
2013-09-18 05:12:00,50.0,46.0,-100.00,SSW,212,6.0,11.0,87,0.00,,,0.08,,2013-09-18 11:12:00,
2013-09-18 05:22:00,50.0,46.0,-100.00,SSW,212,6.0,11.0,87,0.00,,,0.08,,2013-09-18 11:22:00,
2013-09-18 05:33:00,50.0,46.0,-100.00,SSW,212,6.0,11.0,87,0.00,,,0.08,,2013-09-18 11:33:00,
2013-09-18 05:42:00,50.0,46.0,-100.00,SSW,196,5.0,12.0,87,0.00,,,0.08,,2013-09-18 11:42:00,
2013-09-18 06:12:00,50.0,46.0,-100.00,SSW,196,5.0,12.0,87,0.00,,,0.08,,2013-09-18 12:12:00,
2013-09-18 06:22:00,50.0,46.0,-100.00,SSW,196,5.0,12.0,87,0.00,,,0.08,,2013-09-18 12:22:00,
2013-09-18 06:32:00,50.0,46.0,-100.00,SSW,196,5.0,12.0,87,0.00,,,0.08,,2013-09-18 12:32:00,
2013-09-18 07:11:00,51.0,45.0,-100.00,South,174,7.0,14.0,81,0.00,,,0.08,,2013-09-18 13:11:00,
2013-09-18 21:42:00,49.0,42.0,-100.00,North,353,3.0,9.0,78,0.02,,,0.05,,2013-09-19 03:42:00,
2013-09-18 22:14:00,49.0,42.0,-100.00,North,353,3.0,9.0,78,0.02,,,0.05,,2013-09-19 04:14:00,
2013-09-18 22:25:00,49.0,42.0,-100.00,North,353,3.0,9.0,78,0.02,,,0.05,,2013-09-19 04:25:00,
2013-09-18 22:33:00,49.0,42.0,-100.00,North,353,3.0,9.0,78,0.02,,,0.05,,2013-09-19 04:33:00,
2013-09-18 22:42:00,50.0,36.0,-100.00,NW,305,6.0,10.0,58,0.00,,,0.05,,2013-09-19 04:42:00,
2013-09-18 23:13:00,50.0,36.0,-100.00,NW,305,6.0,10.0,58,0.00,,,0.05,,2013-09-19 05:13:00,
2013-09-18 23:23:00,50.0,36.0,-100.00,NW,305,6.0,10.0,58,0.00,,,0.05,,2013-09-19 05:23:00,
2013-09-18 23:34:00,50.0,36.0,-100.00,NW,305,6.0,10.0,58,0.00,,,0.05,,2013-09-19 05:34:00,
2013-09-18 23:42:00,48.0,37.0,-100.00,North,6,5.0,10.0,65,0.00,,,0.05,,2013-09-19 05:42:00,